sensor_id;sensor_type;location;lat;lon;timestamp;temperature;humidity
55771;DHT22;41687;-33.234;-60.334;2022-10-13T00:01:18;21.10;34.90
55771;DHT22;41687;-33.234;-60.334;2022-10-13T00:03:47;21.10;35.30
55771;DHT22;41687;-33.234;-60.334;2022-10-13T00:06:21;21.10;34.90
55771;DHT22;41687;-33.234;-60.334;2022-10-13T00:08:50;21.00;34.70
55771;DHT22;41687;-33.234;-60.334;2022-10-13T00:11:23;21.00;34.90
55771;DHT22;41687;-33.234;-60.334;2022-10-13T00:13:58;21.00;35.10
55771;DHT22;41687;-33.234;-60.334;2022-10-13T00:16:30;21.00;35.20
55771;DHT22;41687;-33.234;-60.334;2022-10-13T00:18:59;20.80;35.10
55771;DHT22;41687;-33.234;-60.334;2022-10-13T00:21:27;20.70;35.40
55771;DHT22;41687;-33.234;-60.334;2022-10-13T00:23:55;20.80;35.50
55771;DHT22;41687;-33.234;-60.334;2022-10-13T00:26:24;20.70;35.60
55771;DHT22;41687;-33.234;-60.334;2022-10-13T00:28:54;20.60;35.90
55771;DHT22;41687;-33.234;-60.334;2022-10-13T00:31:24;20.50;36.10
55771;DHT22;41687;-33.234;-60.334;2022-10-13T00:33:53;20.40;36.40
55771;DHT22;41687;-33.234;-60.334;2022-10-13T00:36:22;20.40;36.50
55771;DHT22;41687;-33.234;-60.334;2022-10-13T00:38:51;20.30;36.70
55771;DHT22;41687;-33.234;-60.334;2022-10-13T00:41:20;20.30;36.90
55771;DHT22;41687;-33.234;-60.334;2022-10-13T00:46:20;20.30;37.20
55771;DHT22;41687;-33.234;-60.334;2022-10-13T00:49:01;20.30;37.20
55771;DHT22;41687;-33.234;-60.334;2022-10-13T00:51:32;20.20;37.50
55771;DHT22;41687;-33.234;-60.334;2022-10-13T00:54:03;20.10;37.80
55771;DHT22;41687;-33.234;-60.334;2022-10-13T00:56:33;20.00;38.10
55771;DHT22;41687;-33.234;-60.334;2022-10-13T00:59:03;20.00;37.90
55771;DHT22;41687;-33.234;-60.334;2022-10-13T01:01:35;20.00;38.00
55771;DHT22;41687;-33.234;-60.334;2022-10-13T01:04:03;20.00;37.90
55771;DHT22;41687;-33.234;-60.334;2022-10-13T01:06:31;19.90;38.50
55771;DHT22;41687;-33.234;-60.334;2022-10-13T01:08:59;19.80;38.80
55771;DHT22;41687;-33.234;-60.334;2022-10-13T01:17:02;19.70;39.50
55771;DHT22;41687;-33.234;-60.334;2022-10-13T01:22:38;19.70;39.40
55771;DHT22;41687;-33.234;-60.334;2022-10-13T01:30:27;19.60;39.80
55771;DHT22;41687;-33.234;-60.334;2022-10-13T01:41:27;19.50;39.70
55771;DHT22;41687;-33.234;-60.334;2022-10-13T01:46:52;19.50;40.30
55771;DHT22;41687;-33.234;-60.334;2022-10-13T01:49:26;19.50;39.20
55771;DHT22;41687;-33.234;-60.334;2022-10-13T01:52:00;19.50;39.70
55771;DHT22;41687;-33.234;-60.334;2022-10-13T01:54:30;19.50;39.70
55771;DHT22;41687;-33.234;-60.334;2022-10-13T01:57:01;19.50;39.30
55771;DHT22;41687;-33.234;-60.334;2022-10-13T01:59:32;19.50;39.30
55771;DHT22;41687;-33.234;-60.334;2022-10-13T02:02:31;19.50;39.70
55771;DHT22;41687;-33.234;-60.334;2022-10-13T02:07:48;19.40;40.30
55771;DHT22;41687;-33.234;-60.334;2022-10-13T02:10:31;19.40;40.10
55771;DHT22;41687;-33.234;-60.334;2022-10-13T02:13:03;19.40;39.70
55771;DHT22;41687;-33.234;-60.334;2022-10-13T02:15:48;19.40;39.80
55771;DHT22;41687;-33.234;-60.334;2022-10-13T02:18:21;19.40;40.30
55771;DHT22;41687;-33.234;-60.334;2022-10-13T02:20:50;19.30;39.80
55771;DHT22;41687;-33.234;-60.334;2022-10-13T02:23:19;19.30;40.50
55771;DHT22;41687;-33.234;-60.334;2022-10-13T02:25:47;19.20;39.90
55771;DHT22;41687;-33.234;-60.334;2022-10-13T02:28:17;19.30;40.10
55771;DHT22;41687;-33.234;-60.334;2022-10-13T02:30:46;19.20;40.50
55771;DHT22;41687;-33.234;-60.334;2022-10-13T02:33:14;19.20;40.30
55771;DHT22;41687;-33.234;-60.334;2022-10-13T02:35:42;19.20;40.00
55771;DHT22;41687;-33.234;-60.334;2022-10-13T02:38:11;19.10;40.10
55771;DHT22;41687;-33.234;-60.334;2022-10-13T02:40:39;19.10;40.10
55771;DHT22;41687;-33.234;-60.334;2022-10-13T02:43:06;19.10;40.30
55771;DHT22;41687;-33.234;-60.334;2022-10-13T02:45:34;19.00;40.40
55771;DHT22;41687;-33.234;-60.334;2022-10-13T02:48:02;19.00;40.30
55771;DHT22;41687;-33.234;-60.334;2022-10-13T02:50:30;18.90;40.30
55771;DHT22;41687;-33.234;-60.334;2022-10-13T02:52:58;18.90;40.10
55771;DHT22;41687;-33.234;-60.334;2022-10-13T02:55:26;18.90;40.40
55771;DHT22;41687;-33.234;-60.334;2022-10-13T02:57:57;18.90;40.70
55771;DHT22;41687;-33.234;-60.334;2022-10-13T03:00:25;18.90;40.70
55771;DHT22;41687;-33.234;-60.334;2022-10-13T03:02:52;18.90;40.60
55771;DHT22;41687;-33.234;-60.334;2022-10-13T03:05:20;18.80;40.70
55771;DHT22;41687;-33.234;-60.334;2022-10-13T03:07:48;18.80;41.10
55771;DHT22;41687;-33.234;-60.334;2022-10-13T03:10:16;18.70;41.10
55771;DHT22;41687;-33.234;-60.334;2022-10-13T03:12:44;18.70;40.90
55771;DHT22;41687;-33.234;-60.334;2022-10-13T03:15:12;18.70;41.10
55771;DHT22;41687;-33.234;-60.334;2022-10-13T03:17:39;18.70;41.40
55771;DHT22;41687;-33.234;-60.334;2022-10-13T03:20:08;18.60;41.60
55771;DHT22;41687;-33.234;-60.334;2022-10-13T03:22:36;18.60;41.60
55771;DHT22;41687;-33.234;-60.334;2022-10-13T03:25:04;18.40;41.80
55771;DHT22;41687;-33.234;-60.334;2022-10-13T03:27:32;18.50;41.50
55771;DHT22;41687;-33.234;-60.334;2022-10-13T03:30:00;18.50;41.40
55771;DHT22;41687;-33.234;-60.334;2022-10-13T03:32:31;18.50;42.00
55771;DHT22;41687;-33.234;-60.334;2022-10-13T03:34:59;18.40;41.70
55771;DHT22;41687;-33.234;-60.334;2022-10-13T03:37:28;18.40;41.60
55771;DHT22;41687;-33.234;-60.334;2022-10-13T03:39:57;18.40;41.80
55771;DHT22;41687;-33.234;-60.334;2022-10-13T03:42:24;18.30;41.80
55771;DHT22;41687;-33.234;-60.334;2022-10-13T03:44:52;18.30;41.60
55771;DHT22;41687;-33.234;-60.334;2022-10-13T03:47:20;18.30;42.30
55771;DHT22;41687;-33.234;-60.334;2022-10-13T03:49:48;18.30;42.30
55771;DHT22;41687;-33.234;-60.334;2022-10-13T03:52:16;18.30;42.30
55771;DHT22;41687;-33.234;-60.334;2022-10-13T03:54:43;18.20;42.40
55771;DHT22;41687;-33.234;-60.334;2022-10-13T03:57:11;18.20;42.00
55771;DHT22;41687;-33.234;-60.334;2022-10-13T03:59:39;18.20;42.30
55771;DHT22;41687;-33.234;-60.334;2022-10-13T04:02:08;18.20;42.90
55771;DHT22;41687;-33.234;-60.334;2022-10-13T04:04:37;18.20;43.40
55771;DHT22;41687;-33.234;-60.334;2022-10-13T04:07:05;18.10;43.10
55771;DHT22;41687;-33.234;-60.334;2022-10-13T04:09:33;18.00;42.90
55771;DHT22;41687;-33.234;-60.334;2022-10-13T04:12:01;18.00;43.00
55771;DHT22;41687;-33.234;-60.334;2022-10-13T04:14:29;18.00;43.10
55771;DHT22;41687;-33.234;-60.334;2022-10-13T04:17:03;18.00;43.20
55771;DHT22;41687;-33.234;-60.334;2022-10-13T04:19:31;18.00;43.40
55771;DHT22;41687;-33.234;-60.334;2022-10-13T04:22:05;18.00;43.90
55771;DHT22;41687;-33.234;-60.334;2022-10-13T04:24:34;17.90;43.70
55771;DHT22;41687;-33.234;-60.334;2022-10-13T04:27:01;17.90;44.60
55771;DHT22;41687;-33.234;-60.334;2022-10-13T04:29:29;17.90;44.00
55771;DHT22;41687;-33.234;-60.334;2022-10-13T04:31:58;17.80;44.50
55771;DHT22;41687;-33.234;-60.334;2022-10-13T04:34:27;17.70;44.50
55771;DHT22;41687;-33.234;-60.334;2022-10-13T04:36:54;17.70;44.30
55771;DHT22;41687;-33.234;-60.334;2022-10-13T04:39:22;17.70;44.40
55771;DHT22;41687;-33.234;-60.334;2022-10-13T04:41:50;17.70;44.00
55771;DHT22;41687;-33.234;-60.334;2022-10-13T04:44:19;17.60;44.60
55771;DHT22;41687;-33.234;-60.334;2022-10-13T04:46:46;17.60;44.90
55771;DHT22;41687;-33.234;-60.334;2022-10-13T04:49:15;17.60;45.00
55771;DHT22;41687;-33.234;-60.334;2022-10-13T04:51:43;17.60;44.90
55771;DHT22;41687;-33.234;-60.334;2022-10-13T04:54:11;17.60;44.80
55771;DHT22;41687;-33.234;-60.334;2022-10-13T04:56:39;17.50;45.20
55771;DHT22;41687;-33.234;-60.334;2022-10-13T04:59:07;17.50;45.10
55771;DHT22;41687;-33.234;-60.334;2022-10-13T05:01:34;17.50;45.10
55771;DHT22;41687;-33.234;-60.334;2022-10-13T05:04:06;17.40;45.30
55771;DHT22;41687;-33.234;-60.334;2022-10-13T05:06:38;17.40;45.10
55771;DHT22;41687;-33.234;-60.334;2022-10-13T05:09:06;17.40;46.00
55771;DHT22;41687;-33.234;-60.334;2022-10-13T05:11:34;17.40;45.60
55771;DHT22;41687;-33.234;-60.334;2022-10-13T05:14:02;17.40;44.90
55771;DHT22;41687;-33.234;-60.334;2022-10-13T05:16:30;17.40;45.70
55771;DHT22;41687;-33.234;-60.334;2022-10-13T05:18:58;17.40;45.10
55771;DHT22;41687;-33.234;-60.334;2022-10-13T05:21:28;17.40;44.80
55771;DHT22;41687;-33.234;-60.334;2022-10-13T05:23:56;17.30;45.70
55771;DHT22;41687;-33.234;-60.334;2022-10-13T05:26:25;17.30;45.20
55771;DHT22;41687;-33.234;-60.334;2022-10-13T05:28:59;17.30;45.20
55771;DHT22;41687;-33.234;-60.334;2022-10-13T05:31:31;17.30;45.20
55771;DHT22;41687;-33.234;-60.334;2022-10-13T05:34:00;17.30;45.70
55771;DHT22;41687;-33.234;-60.334;2022-10-13T05:36:31;17.20;45.90
55771;DHT22;41687;-33.234;-60.334;2022-10-13T05:39:04;17.20;45.50
55771;DHT22;41687;-33.234;-60.334;2022-10-13T05:41:32;17.20;45.60
55771;DHT22;41687;-33.234;-60.334;2022-10-13T05:44:03;17.10;45.90
55771;DHT22;41687;-33.234;-60.334;2022-10-13T05:46:33;16.90;46.30
55771;DHT22;41687;-33.234;-60.334;2022-10-13T05:49:01;16.90;46.90
55771;DHT22;41687;-33.234;-60.334;2022-10-13T05:51:39;16.90;46.00
55771;DHT22;41687;-33.234;-60.334;2022-10-13T05:56:45;16.90;46.80
55771;DHT22;41687;-33.234;-60.334;2022-10-13T05:59:16;16.90;46.30
55771;DHT22;41687;-33.234;-60.334;2022-10-13T06:01:47;16.90;46.40
55771;DHT22;41687;-33.234;-60.334;2022-10-13T06:04:24;16.90;46.30
55771;DHT22;41687;-33.234;-60.334;2022-10-13T06:06:53;16.90;47.20
55771;DHT22;41687;-33.234;-60.334;2022-10-13T06:09:20;17.00;46.40
55771;DHT22;41687;-33.234;-60.334;2022-10-13T06:11:48;17.10;46.20
55771;DHT22;41687;-33.234;-60.334;2022-10-13T06:14:15;17.10;46.00
55771;DHT22;41687;-33.234;-60.334;2022-10-13T06:16:44;17.10;45.80
55771;DHT22;41687;-33.234;-60.334;2022-10-13T06:19:11;17.20;45.50
55771;DHT22;41687;-33.234;-60.334;2022-10-13T06:21:39;17.20;45.00
55771;DHT22;41687;-33.234;-60.334;2022-10-13T06:24:06;17.30;45.10
55771;DHT22;41687;-33.234;-60.334;2022-10-13T06:26:35;17.40;45.20
55771;DHT22;41687;-33.234;-60.334;2022-10-13T06:29:02;17.40;44.50
55771;DHT22;41687;-33.234;-60.334;2022-10-13T06:31:29;17.40;44.80
55771;DHT22;41687;-33.234;-60.334;2022-10-13T06:33:58;17.50;44.60
55771;DHT22;41687;-33.234;-60.334;2022-10-13T06:36:26;17.60;44.10
55771;DHT22;41687;-33.234;-60.334;2022-10-13T06:38:54;17.70;43.50
55771;DHT22;41687;-33.234;-60.334;2022-10-13T06:41:22;17.70;43.50
55771;DHT22;41687;-33.234;-60.334;2022-10-13T06:43:49;17.90;43.20
55771;DHT22;41687;-33.234;-60.334;2022-10-13T06:46:17;18.00;43.60
55771;DHT22;41687;-33.234;-60.334;2022-10-13T06:48:48;18.00;43.40
55771;DHT22;41687;-33.234;-60.334;2022-10-13T06:51:17;18.10;43.00
55771;DHT22;41687;-33.234;-60.334;2022-10-13T06:53:45;18.20;42.40
55771;DHT22;41687;-33.234;-60.334;2022-10-13T06:56:13;18.30;42.00
55771;DHT22;41687;-33.234;-60.334;2022-10-13T06:58:41;18.40;41.60
55771;DHT22;41687;-33.234;-60.334;2022-10-13T07:01:12;18.50;41.50
55771;DHT22;41687;-33.234;-60.334;2022-10-13T07:03:40;18.60;41.50
55771;DHT22;41687;-33.234;-60.334;2022-10-13T07:06:08;18.60;41.30
55771;DHT22;41687;-33.234;-60.334;2022-10-13T07:08:36;18.50;42.10
55771;DHT22;41687;-33.234;-60.334;2022-10-13T07:11:08;18.50;41.90
55771;DHT22;41687;-33.234;-60.334;2022-10-13T07:13:39;18.50;41.60
55771;DHT22;41687;-33.234;-60.334;2022-10-13T07:16:08;18.50;41.40
55771;DHT22;41687;-33.234;-60.334;2022-10-13T07:18:36;18.50;42.20
55771;DHT22;41687;-33.234;-60.334;2022-10-13T07:21:05;18.50;41.70
55771;DHT22;41687;-33.234;-60.334;2022-10-13T07:23:33;18.40;42.00
55771;DHT22;41687;-33.234;-60.334;2022-10-13T07:26:05;18.40;41.80
55771;DHT22;41687;-33.234;-60.334;2022-10-13T07:28:33;18.30;41.90
55771;DHT22;41687;-33.234;-60.334;2022-10-13T07:31:07;18.30;42.70
55771;DHT22;41687;-33.234;-60.334;2022-10-13T07:33:38;18.30;43.30
55771;DHT22;41687;-33.234;-60.334;2022-10-13T07:36:06;18.20;43.10
55771;DHT22;41687;-33.234;-60.334;2022-10-13T07:38:34;18.20;43.80
55771;DHT22;41687;-33.234;-60.334;2022-10-13T07:41:02;18.20;43.30
55771;DHT22;41687;-33.234;-60.334;2022-10-13T07:43:31;18.10;43.30
55771;DHT22;41687;-33.234;-60.334;2022-10-13T07:46:00;18.00;43.30
55771;DHT22;41687;-33.234;-60.334;2022-10-13T07:48:28;18.00;43.10
55771;DHT22;41687;-33.234;-60.334;2022-10-13T07:51:02;17.90;43.40
55771;DHT22;41687;-33.234;-60.334;2022-10-13T07:53:30;17.90;43.20
55771;DHT22;41687;-33.234;-60.334;2022-10-13T07:56:03;17.90;43.50
55771;DHT22;41687;-33.234;-60.334;2022-10-13T07:58:32;17.80;44.20
55771;DHT22;41687;-33.234;-60.334;2022-10-13T08:01:01;17.80;43.40
55771;DHT22;41687;-33.234;-60.334;2022-10-13T08:03:30;17.70;43.40
55771;DHT22;41687;-33.234;-60.334;2022-10-13T08:05:59;17.70;44.30
55771;DHT22;41687;-33.234;-60.334;2022-10-13T08:08:28;17.70;43.90
55771;DHT22;41687;-33.234;-60.334;2022-10-13T08:11:04;17.60;43.80
55771;DHT22;41687;-33.234;-60.334;2022-10-13T08:13:34;17.50;44.20
55771;DHT22;41687;-33.234;-60.334;2022-10-13T08:16:12;17.50;44.50
55771;DHT22;41687;-33.234;-60.334;2022-10-13T08:18:41;17.40;44.60
55771;DHT22;41687;-33.234;-60.334;2022-10-13T08:21:12;17.40;44.40
55771;DHT22;41687;-33.234;-60.334;2022-10-13T08:23:40;17.30;44.40
55771;DHT22;41687;-33.234;-60.334;2022-10-13T08:26:25;17.30;43.90
55771;DHT22;41687;-33.234;-60.334;2022-10-13T08:28:53;17.30;44.70
55771;DHT22;41687;-33.234;-60.334;2022-10-13T08:31:22;17.20;44.50
55771;DHT22;41687;-33.234;-60.334;2022-10-13T08:33:51;17.20;45.20
55771;DHT22;41687;-33.234;-60.334;2022-10-13T08:36:19;17.30;45.00
55771;DHT22;41687;-33.234;-60.334;2022-10-13T08:38:47;17.30;44.40
55771;DHT22;41687;-33.234;-60.334;2022-10-13T08:41:22;17.20;44.90
55771;DHT22;41687;-33.234;-60.334;2022-10-13T08:44:02;17.20;44.90
55771;DHT22;41687;-33.234;-60.334;2022-10-13T08:46:38;17.20;44.90
55771;DHT22;41687;-33.234;-60.334;2022-10-13T08:49:12;17.20;45.30
55771;DHT22;41687;-33.234;-60.334;2022-10-13T08:51:41;17.10;43.70
55771;DHT22;41687;-33.234;-60.334;2022-10-13T08:54:14;17.10;42.90
55771;DHT22;41687;-33.234;-60.334;2022-10-13T08:56:44;17.00;43.30
55771;DHT22;41687;-33.234;-60.334;2022-10-13T08:59:17;16.90;43.80
55771;DHT22;41687;-33.234;-60.334;2022-10-13T09:01:45;16.70;44.20
55771;DHT22;41687;-33.234;-60.334;2022-10-13T09:04:31;16.60;44.70
55771;DHT22;41687;-33.234;-60.334;2022-10-13T09:07:19;16.50;44.90
55771;DHT22;41687;-33.234;-60.334;2022-10-13T09:09:53;16.20;46.70
55771;DHT22;41687;-33.234;-60.334;2022-10-13T09:12:24;16.00;46.60
55771;DHT22;41687;-33.234;-60.334;2022-10-13T09:15:01;16.00;46.90
55771;DHT22;41687;-33.234;-60.334;2022-10-13T09:17:32;15.80;47.10
55771;DHT22;41687;-33.234;-60.334;2022-10-13T09:22:30;15.20;47.30
55771;DHT22;41687;-33.234;-60.334;2022-10-13T09:25:19;15.00;47.40
55771;DHT22;41687;-33.234;-60.334;2022-10-13T09:33:19;14.80;47.10
55771;DHT22;41687;-33.234;-60.334;2022-10-13T09:38:20;14.50;47.60
55771;DHT22;41687;-33.234;-60.334;2022-10-13T09:41:16;14.40;47.70
55771;DHT22;41687;-33.234;-60.334;2022-10-13T09:46:38;14.30;47.30
55771;DHT22;41687;-33.234;-60.334;2022-10-13T09:49:35;14.10;48.60
55771;DHT22;41687;-33.234;-60.334;2022-10-13T09:54:49;14.20;47.60
55771;DHT22;41687;-33.234;-60.334;2022-10-13T10:00:16;14.10;48.30
55771;DHT22;41687;-33.234;-60.334;2022-10-13T10:11:02;13.80;47.60
55771;DHT22;41687;-33.234;-60.334;2022-10-13T10:13:31;13.80;46.80
55771;DHT22;41687;-33.234;-60.334;2022-10-13T10:18:58;13.90;46.80
55771;DHT22;41687;-33.234;-60.334;2022-10-13T10:25:00;13.90;46.50
55771;DHT22;41687;-33.234;-60.334;2022-10-13T10:27:48;14.00;46.60
55771;DHT22;41687;-33.234;-60.334;2022-10-13T10:30:19;14.20;45.70
55771;DHT22;41687;-33.234;-60.334;2022-10-13T10:46:17;15.70;44.10
55771;DHT22;41687;-33.234;-60.334;2022-10-13T10:48:47;15.80;43.20
55771;DHT22;41687;-33.234;-60.334;2022-10-13T10:51:17;15.90;43.40
55771;DHT22;41687;-33.234;-60.334;2022-10-13T11:00:12;15.70;43.70
55771;DHT22;41687;-33.234;-60.334;2022-10-13T11:13:57;16.10;43.20
55771;DHT22;41687;-33.234;-60.334;2022-10-13T11:18:58;16.30;42.20
55771;DHT22;41687;-33.234;-60.334;2022-10-13T11:29:58;16.50;41.50
55771;DHT22;41687;-33.234;-60.334;2022-10-13T11:46:01;16.00;42.00
55771;DHT22;41687;-33.234;-60.334;2022-10-13T11:49:19;15.70;43.20
55771;DHT22;41687;-33.234;-60.334;2022-10-13T11:57:26;14.50;45.00
55771;DHT22;41687;-33.234;-60.334;2022-10-13T11:59:55;14.40;45.50
55771;DHT22;41687;-33.234;-60.334;2022-10-13T12:02:28;14.50;44.00
55771;DHT22;41687;-33.234;-60.334;2022-10-13T12:05:03;14.50;44.30
55771;DHT22;41687;-33.234;-60.334;2022-10-13T12:07:39;14.40;45.10
55771;DHT22;41687;-33.234;-60.334;2022-10-13T12:10:19;14.40;44.80
55771;DHT22;41687;-33.234;-60.334;2022-10-13T12:12:50;14.70;45.10
55771;DHT22;41687;-33.234;-60.334;2022-10-13T12:18:01;14.70;44.90
55771;DHT22;41687;-33.234;-60.334;2022-10-13T12:20:31;14.70;44.10
55771;DHT22;41687;-33.234;-60.334;2022-10-13T12:22:59;15.00;43.60
55771;DHT22;41687;-33.234;-60.334;2022-10-13T12:25:28;15.20;43.10
55771;DHT22;41687;-33.234;-60.334;2022-10-13T12:27:59;15.70;43.80
55771;DHT22;41687;-33.234;-60.334;2022-10-13T12:30:29;16.10;42.80
55771;DHT22;41687;-33.234;-60.334;2022-10-13T12:32:59;16.70;42.30
55771;DHT22;41687;-33.234;-60.334;2022-10-13T12:35:31;16.90;41.70
55771;DHT22;41687;-33.234;-60.334;2022-10-13T12:38:05;17.30;41.00
55771;DHT22;41687;-33.234;-60.334;2022-10-13T12:40:34;17.30;40.50
55771;DHT22;41687;-33.234;-60.334;2022-10-13T12:43:03;16.60;40.70
55771;DHT22;41687;-33.234;-60.334;2022-10-13T12:45:34;16.20;41.00
55771;DHT22;41687;-33.234;-60.334;2022-10-13T12:48:01;15.80;40.90
55771;DHT22;41687;-33.234;-60.334;2022-10-13T12:50:35;15.70;40.70
55771;DHT22;41687;-33.234;-60.334;2022-10-13T12:53:20;15.50;41.10
55771;DHT22;41687;-33.234;-60.334;2022-10-13T12:55:56;15.60;41.00
55771;DHT22;41687;-33.234;-60.334;2022-10-13T12:58:35;15.80;40.80
55771;DHT22;41687;-33.234;-60.334;2022-10-13T13:01:25;16.10;40.50
55771;DHT22;41687;-33.234;-60.334;2022-10-13T13:03:57;16.70;40.30
55771;DHT22;41687;-33.234;-60.334;2022-10-13T13:06:35;16.90;40.00
55771;DHT22;41687;-33.234;-60.334;2022-10-13T13:09:35;16.40;39.80
55771;DHT22;41687;-33.234;-60.334;2022-10-13T13:14:43;16.00;40.40
55771;DHT22;41687;-33.234;-60.334;2022-10-13T13:19:51;15.80;39.30
55771;DHT22;41687;-33.234;-60.334;2022-10-13T13:22:19;15.60;39.20
55771;DHT22;41687;-33.234;-60.334;2022-10-13T13:24:49;15.50;39.30
55771;DHT22;41687;-33.234;-60.334;2022-10-13T13:27:35;15.30;39.60
55771;DHT22;41687;-33.234;-60.334;2022-10-13T13:30:11;15.20;40.30
55771;DHT22;41687;-33.234;-60.334;2022-10-13T13:32:39;14.90;40.60
55771;DHT22;41687;-33.234;-60.334;2022-10-13T13:35:08;14.80;40.20
55771;DHT22;41687;-33.234;-60.334;2022-10-13T13:37:36;14.80;40.20
55771;DHT22;41687;-33.234;-60.334;2022-10-13T13:40:06;14.90;40.40
55771;DHT22;41687;-33.234;-60.334;2022-10-13T13:42:40;15.40;40.10
55771;DHT22;41687;-33.234;-60.334;2022-10-13T13:45:12;15.60;39.70
55771;DHT22;41687;-33.234;-60.334;2022-10-13T13:47:40;15.60;39.30
55771;DHT22;41687;-33.234;-60.334;2022-10-13T13:50:23;15.30;39.60
55771;DHT22;41687;-33.234;-60.334;2022-10-13T13:52:59;15.90;39.50
55771;DHT22;41687;-33.234;-60.334;2022-10-13T13:55:27;16.30;39.40
55771;DHT22;41687;-33.234;-60.334;2022-10-13T13:57:56;16.40;39.20
55771;DHT22;41687;-33.234;-60.334;2022-10-13T14:00:24;16.20;39.10
55771;DHT22;41687;-33.234;-60.334;2022-10-13T14:02:57;16.60;39.50
55771;DHT22;41687;-33.234;-60.334;2022-10-13T14:05:26;17.00;38.40
55771;DHT22;41687;-33.234;-60.334;2022-10-13T14:07:57;16.80;37.60
55771;DHT22;41687;-33.234;-60.334;2022-10-13T14:10:24;16.70;37.60
55771;DHT22;41687;-33.234;-60.334;2022-10-13T14:12:52;16.50;37.80
55771;DHT22;41687;-33.234;-60.334;2022-10-13T14:15:20;16.30;37.40
55771;DHT22;41687;-33.234;-60.334;2022-10-13T14:17:47;16.50;37.30
55771;DHT22;41687;-33.234;-60.334;2022-10-13T14:20:18;16.70;37.50
55771;DHT22;41687;-33.234;-60.334;2022-10-13T14:22:45;16.70;37.30
55771;DHT22;41687;-33.234;-60.334;2022-10-13T14:25:16;17.30;37.60
55771;DHT22;41687;-33.234;-60.334;2022-10-13T14:27:44;18.10;37.30
55771;DHT22;41687;-33.234;-60.334;2022-10-13T14:30:13;18.40;36.00
55771;DHT22;41687;-33.234;-60.334;2022-10-13T14:32:41;18.20;35.90
55771;DHT22;41687;-33.234;-60.334;2022-10-13T14:35:09;17.90;36.50
55771;DHT22;41687;-33.234;-60.334;2022-10-13T14:37:37;17.70;36.30
55771;DHT22;41687;-33.234;-60.334;2022-10-13T14:40:06;17.60;36.50
55771;DHT22;41687;-33.234;-60.334;2022-10-13T14:42:34;17.50;36.40
55771;DHT22;41687;-33.234;-60.334;2022-10-13T14:45:04;17.20;36.50
55771;DHT22;41687;-33.234;-60.334;2022-10-13T14:47:32;17.00;37.10
55771;DHT22;41687;-33.234;-60.334;2022-10-13T14:50:00;17.10;36.80
55771;DHT22;41687;-33.234;-60.334;2022-10-13T14:52:28;17.40;36.70
55771;DHT22;41687;-33.234;-60.334;2022-10-13T14:54:55;17.60;36.30
55771;DHT22;41687;-33.234;-60.334;2022-10-13T14:57:23;17.50;36.40
55771;DHT22;41687;-33.234;-60.334;2022-10-13T14:59:51;17.40;36.80
55771;DHT22;41687;-33.234;-60.334;2022-10-13T15:02:19;17.30;36.90
55771;DHT22;41687;-33.234;-60.334;2022-10-13T15:04:53;17.20;37.00
55771;DHT22;41687;-33.234;-60.334;2022-10-13T15:07:24;17.40;36.70
55771;DHT22;41687;-33.234;-60.334;2022-10-13T15:09:51;17.90;35.80
55771;DHT22;41687;-33.234;-60.334;2022-10-13T15:12:19;18.10;35.10
55771;DHT22;41687;-33.234;-60.334;2022-10-13T15:14:47;17.90;34.90
55771;DHT22;41687;-33.234;-60.334;2022-10-13T15:17:15;18.10;35.50
55771;DHT22;41687;-33.234;-60.334;2022-10-13T15:19:43;18.30;34.00
55771;DHT22;41687;-33.234;-60.334;2022-10-13T15:22:10;18.40;34.60
55771;DHT22;41687;-33.234;-60.334;2022-10-13T15:24:39;18.50;34.90
55771;DHT22;41687;-33.234;-60.334;2022-10-13T15:27:06;19.00;35.00
55771;DHT22;41687;-33.234;-60.334;2022-10-13T15:29:34;19.10;33.10
55771;DHT22;41687;-33.234;-60.334;2022-10-13T15:32:13;19.50;33.20
55771;DHT22;41687;-33.234;-60.334;2022-10-13T15:34:49;19.70;32.50
55771;DHT22;41687;-33.234;-60.334;2022-10-13T15:37:17;19.80;33.70
55771;DHT22;41687;-33.234;-60.334;2022-10-13T15:39:44;19.90;33.20
55771;DHT22;41687;-33.234;-60.334;2022-10-13T15:42:13;19.70;32.60
55771;DHT22;41687;-33.234;-60.334;2022-10-13T15:44:40;19.80;33.40
55771;DHT22;41687;-33.234;-60.334;2022-10-13T15:47:08;19.80;33.50
55771;DHT22;41687;-33.234;-60.334;2022-10-13T15:49:36;19.90;33.00
55771;DHT22;41687;-33.234;-60.334;2022-10-13T15:52:04;19.60;32.80
55771;DHT22;41687;-33.234;-60.334;2022-10-13T15:54:32;19.60;32.70
55771;DHT22;41687;-33.234;-60.334;2022-10-13T15:57:01;19.40;33.00
55771;DHT22;41687;-33.234;-60.334;2022-10-13T15:59:29;19.40;32.50
55771;DHT22;41687;-33.234;-60.334;2022-10-13T16:01:57;19.00;33.40
55771;DHT22;41687;-33.234;-60.334;2022-10-13T16:04:25;18.90;33.80
55771;DHT22;41687;-33.234;-60.334;2022-10-13T16:06:52;18.70;33.50
55771;DHT22;41687;-33.234;-60.334;2022-10-13T16:09:20;18.50;32.60
55771;DHT22;41687;-33.234;-60.334;2022-10-13T16:11:48;18.10;33.00
55771;DHT22;41687;-33.234;-60.334;2022-10-13T16:14:16;17.90;33.40
55771;DHT22;41687;-33.234;-60.334;2022-10-13T16:16:43;17.60;32.90
55771;DHT22;41687;-33.234;-60.334;2022-10-13T16:19:11;17.60;32.40
55771;DHT22;41687;-33.234;-60.334;2022-10-13T16:21:40;17.50;32.70
55771;DHT22;41687;-33.234;-60.334;2022-10-13T16:24:08;17.50;33.80
55771;DHT22;41687;-33.234;-60.334;2022-10-13T16:26:36;17.40;33.70
55771;DHT22;41687;-33.234;-60.334;2022-10-13T16:29:03;17.30;33.50
55771;DHT22;41687;-33.234;-60.334;2022-10-13T16:31:31;17.40;33.80
55771;DHT22;41687;-33.234;-60.334;2022-10-13T16:33:59;17.60;33.90
55771;DHT22;41687;-33.234;-60.334;2022-10-13T16:36:27;17.60;34.00
55771;DHT22;41687;-33.234;-60.334;2022-10-13T16:38:54;17.40;33.40
55771;DHT22;41687;-33.234;-60.334;2022-10-13T16:41:22;17.20;33.50
55771;DHT22;41687;-33.234;-60.334;2022-10-13T16:43:50;17.20;33.20
55771;DHT22;41687;-33.234;-60.334;2022-10-13T16:46:19;17.20;33.60
55771;DHT22;41687;-33.234;-60.334;2022-10-13T16:48:47;17.10;33.70
55771;DHT22;41687;-33.234;-60.334;2022-10-13T16:51:21;17.10;33.60
55771;DHT22;41687;-33.234;-60.334;2022-10-13T16:53:50;17.20;33.50
55771;DHT22;41687;-33.234;-60.334;2022-10-13T16:56:18;17.10;33.80
55771;DHT22;41687;-33.234;-60.334;2022-10-13T16:58:52;17.10;34.00
55771;DHT22;41687;-33.234;-60.334;2022-10-13T17:01:21;17.30;33.80
55771;DHT22;41687;-33.234;-60.334;2022-10-13T17:03:49;17.30;33.80
55771;DHT22;41687;-33.234;-60.334;2022-10-13T17:06:20;17.30;33.40
55771;DHT22;41687;-33.234;-60.334;2022-10-13T17:08:58;17.50;33.40
55771;DHT22;41687;-33.234;-60.334;2022-10-13T17:11:28;17.50;33.30
55771;DHT22;41687;-33.234;-60.334;2022-10-13T17:13:57;17.40;33.00
55771;DHT22;41687;-33.234;-60.334;2022-10-13T17:16:31;17.20;33.20
55771;DHT22;41687;-33.234;-60.334;2022-10-13T17:18:59;17.00;33.30
55771;DHT22;41687;-33.234;-60.334;2022-10-13T17:21:35;16.90;33.80
55771;DHT22;41687;-33.234;-60.334;2022-10-13T17:24:05;16.70;33.40